createdAt,value
2023-05-09T00:02:01.150Z,19.42
2023-05-09T00:05:06.277Z,15.00
2023-05-09T00:08:10.364Z,15.85
2023-05-09T00:11:14.059Z,20.73
2023-05-09T00:14:19.251Z,13.07
2023-05-09T00:17:25.845Z,12.60
2023-05-09T00:20:29.265Z,15.35
2023-05-09T00:23:32.866Z,14.70
2023-05-09T00:26:36.764Z,15.05
2023-05-09T00:29:40.163Z,14.30
2023-05-09T00:32:44.083Z,25.45
2023-05-09T00:35:48.248Z,19.30
2023-05-09T00:38:52.412Z,18.80
2023-05-09T00:41:59.109Z,15.68
2023-05-09T00:45:05.738Z,13.20
2023-05-09T00:48:09.593Z,17.65
2023-05-09T00:51:13.535Z,20.20
2023-05-09T00:54:16.974Z,21.50
2023-05-09T00:57:21.083Z,19.10
2023-05-09T01:00:24.741Z,17.73
2023-05-09T01:03:29.448Z,16.25
2023-05-09T01:07:06.616Z,11.05
2023-05-09T01:10:39.828Z,18.13
2023-05-09T01:13:55.364Z,14.70
2023-05-09T01:17:16.476Z,15.27
2023-05-09T01:20:34.781Z,17.42
2023-05-09T01:24:15.312Z,15.55
2023-05-09T01:27:56.580Z,15.70
2023-05-09T01:31:00.211Z,15.05
2023-05-09T01:34:06.487Z,12.32
2023-05-09T01:37:11.736Z,14.25
2023-05-09T01:40:17.356Z,13.93
2023-05-09T01:43:23.573Z,17.40
2023-05-09T01:46:29.382Z,13.80
2023-05-09T01:49:34.773Z,12.90
2023-05-09T01:52:41.048Z,19.15
2023-05-09T01:55:45.148Z,11.95
2023-05-09T01:58:52.120Z,13.60
2023-05-09T02:01:57.133Z,12.52
2023-05-09T02:05:03.161Z,10.68
2023-05-09T02:08:07.675Z,19.95
2023-05-09T02:11:11.943Z,15.63
2023-05-09T02:14:15.617Z,12.77
2023-05-09T02:17:20.102Z,11.50
2023-05-09T02:20:23.732Z,14.60
2023-05-09T02:23:27.600Z,13.02
2023-05-09T02:26:32.059Z,20.00
2023-05-09T02:29:43.270Z,22.98
2023-05-09T02:32:49.752Z,16.63
2023-05-09T02:35:57.485Z,17.98
2023-05-09T02:39:01.918Z,14.77
2023-05-09T02:42:14.333Z,16.77
2023-05-09T02:45:18.347Z,12.57
2023-05-09T02:48:22.101Z,13.35
2023-05-09T02:51:25.704Z,13.75
2023-05-09T02:54:29.582Z,14.90
2023-05-09T02:57:33.382Z,14.55
2023-05-09T03:00:37.482Z,16.77
2023-05-09T03:03:42.418Z,17.05
2023-05-09T03:06:47.054Z,14.35
2023-05-09T03:09:51.011Z,15.15
2023-05-09T03:12:55.173Z,15.88
2023-05-09T03:15:59.109Z,15.95
2023-05-09T03:19:02.058Z,22.13
2023-05-09T03:22:05.046Z,17.80
2023-05-09T03:25:13.488Z,20.90
2023-05-09T03:28:17.577Z,13.55
2023-05-09T03:31:21.046Z,15.40
2023-05-09T03:34:25.372Z,18.75
2023-05-09T03:37:28.593Z,15.52
2023-05-09T03:40:33.409Z,16.92
2023-05-09T03:43:44.060Z,22.55
2023-05-09T03:46:48.875Z,17.15
2023-05-09T03:49:54.173Z,18.73
2023-05-09T03:52:59.475Z,15.07
2023-05-09T03:56:03.128Z,19.77
2023-05-09T03:59:11.021Z,18.65
2023-05-09T04:02:15.042Z,18.17
2023-05-09T04:05:20.861Z,19.77
2023-05-09T04:08:25.128Z,20.58
2023-05-09T04:11:29.559Z,17.88
2023-05-09T04:14:35.486Z,22.07
2023-05-09T04:17:39.250Z,26.67
2023-05-09T04:20:42.881Z,23.05
2023-05-09T04:23:49.384Z,23.27
2023-05-09T04:26:55.845Z,21.63
2023-05-09T04:30:02.760Z,19.38
2023-05-09T04:33:06.870Z,21.98
2023-05-09T04:36:11.505Z,23.55
2023-05-09T04:39:15.452Z,18.33
2023-05-09T04:42:28.620Z,20.15
2023-05-09T04:45:32.445Z,26.77
2023-05-09T04:48:37.916Z,27.70
2023-05-09T04:51:41.606Z,22.00
2023-05-09T04:54:45.790Z,23.85
2023-05-09T04:57:51.658Z,20.03
2023-05-09T05:00:56.135Z,21.90
2023-05-09T05:04:00.019Z,24.70
2023-05-09T05:07:06.516Z,22.80
2023-05-09T05:10:11.944Z,19.85
2023-05-09T05:13:19.359Z,20.08
2023-05-09T05:16:26.515Z,24.35
2023-05-09T05:19:30.691Z,26.60
2023-05-09T05:22:34.983Z,20.70
2023-05-09T05:25:39.125Z,20.00
2023-05-09T05:28:42.912Z,19.08
2023-05-09T05:31:47.148Z,21.63
2023-05-09T05:34:50.918Z,23.08
2023-05-09T05:37:55.113Z,22.70
2023-05-09T05:40:59.137Z,20.48
2023-05-09T05:44:04.761Z,23.05
2023-05-09T05:47:09.535Z,24.92
2023-05-09T05:50:14.526Z,24.73
2023-05-09T05:53:18.626Z,21.02
2023-05-09T05:56:23.698Z,26.05
2023-05-09T05:59:27.152Z,21.83
2023-05-09T06:02:31.547Z,21.23
2023-05-09T06:05:35.873Z,18.65
2023-05-09T06:08:39.987Z,22.77
2023-05-09T06:11:43.806Z,21.98
2023-05-09T06:14:47.866Z,25.70
2023-05-09T06:17:51.618Z,23.55
2023-05-09T06:20:55.922Z,23.05
2023-05-09T06:24:09.930Z,26.17
2023-05-09T06:27:18.483Z,25.42
2023-05-09T06:30:26.373Z,24.67
2023-05-09T06:33:31.282Z,24.00
2023-05-09T06:36:35.663Z,26.17
2023-05-09T06:39:39.897Z,27.17
2023-05-09T06:42:43.653Z,29.27
2023-05-09T06:45:47.748Z,25.38
2023-05-09T06:48:51.685Z,28.02
2023-05-09T06:51:55.472Z,26.70
2023-05-09T06:54:58.954Z,28.35
2023-05-09T06:58:03.422Z,27.95
2023-05-09T07:01:07.307Z,27.50
2023-05-09T07:04:11.947Z,23.38
2023-05-09T07:07:16.819Z,27.90
2023-05-09T07:10:21.022Z,29.08
2023-05-09T07:13:24.334Z,23.90
2023-05-09T07:16:30.327Z,27.52
2023-05-09T07:19:33.765Z,30.98
2023-05-09T07:22:38.060Z,24.35
2023-05-09T07:25:41.578Z,28.25
2023-05-09T07:28:45.910Z,24.77
2023-05-09T07:31:49.948Z,31.83
2023-05-09T07:34:54.148Z,23.30
2023-05-09T07:37:57.823Z,27.63
2023-05-09T07:41:02.095Z,24.80
2023-05-09T07:44:05.710Z,28.77
2023-05-09T07:47:10.090Z,26.83
2023-05-09T07:50:13.806Z,26.98
2023-05-09T07:53:17.561Z,30.90
2023-05-09T07:56:22.045Z,29.27
2023-05-09T07:59:26.154Z,35.75
2023-05-09T08:02:29.586Z,31.67
2023-05-09T08:05:33.736Z,31.92
2023-05-09T08:08:38.904Z,27.67
2023-05-09T08:11:43.758Z,33.40
2023-05-09T08:14:47.548Z,29.65
2023-05-09T08:17:51.791Z,29.70
2023-05-09T08:20:55.584Z,30.95
2023-05-09T08:23:59.377Z,29.38
2023-05-09T08:27:03.316Z,26.95
2023-05-09T08:30:08.390Z,36.30
2023-05-09T08:33:12.214Z,30.30
2023-05-09T08:36:16.688Z,26.55
2023-05-09T08:39:23.513Z,29.98
2023-05-09T08:42:28.922Z,28.27
2023-05-09T08:45:48.341Z,30.08
2023-05-09T08:48:52.710Z,30.27
2023-05-09T08:51:57.404Z,30.45
2023-05-09T08:55:02.378Z,36.30
2023-05-09T08:58:06.349Z,34.47
2023-05-09T09:01:11.640Z,29.23
2023-05-09T09:04:15.329Z,30.00
2023-05-09T09:07:20.456Z,35.67
2023-05-09T09:10:26.430Z,31.83
2023-05-09T09:13:31.386Z,35.78
2023-05-09T09:16:36.575Z,38.55
2023-05-09T09:19:43.130Z,34.13
2023-05-09T09:22:49.132Z,36.08
2023-05-09T09:26:11.380Z,35.85
2023-05-09T09:29:16.072Z,32.20
2023-05-09T09:32:20.346Z,40.53
2023-05-09T09:35:25.471Z,37.75
2023-05-09T09:38:28.837Z,37.08
2023-05-09T09:41:39.358Z,37.60
2023-05-09T09:44:43.469Z,34.05
2023-05-09T09:47:49.092Z,37.80
2023-05-09T09:50:52.363Z,37.35
2023-05-09T09:53:56.271Z,34.13
2023-05-09T09:57:00.484Z,40.78
2023-05-09T10:00:06.681Z,37.28
2023-05-09T10:03:17.298Z,39.13
2023-05-09T10:06:21.214Z,34.58
2023-05-09T10:09:26.008Z,41.85
2023-05-09T10:12:29.516Z,40.17
2023-05-09T10:15:49.478Z,37.63
2023-05-09T10:18:56.792Z,38.47
2023-05-09T10:22:05.018Z,40.45
2023-05-09T10:25:15.745Z,35.85
2023-05-09T10:28:23.667Z,38.72
2023-05-09T10:31:29.486Z,39.50
2023-05-09T10:34:35.476Z,43.45
2023-05-09T10:37:40.096Z,46.70
2023-05-09T10:40:47.265Z,41.50
2023-05-09T10:43:51.669Z,44.83
2023-05-09T10:46:56.279Z,47.65
2023-05-09T10:50:00.818Z,44.22
2023-05-09T10:53:19.477Z,44.72
2023-05-09T10:56:36.377Z,49.50
2023-05-09T10:59:43.128Z,46.60
2023-05-09T11:03:08.387Z,55.08
2023-05-09T11:06:52.297Z,55.78
2023-05-09T11:10:18.958Z,67.13
2023-05-09T11:13:25.124Z,70.15
2023-05-09T11:16:28.381Z,63.50
2023-05-09T11:19:47.827Z,58.58
2023-05-09T11:22:54.103Z,55.33
2023-05-09T11:26:07.829Z,63.30
2023-05-09T11:29:11.217Z,58.22
2023-05-09T11:32:18.025Z,62.53
2023-05-09T11:35:23.715Z,58.33
2023-05-09T11:38:26.725Z,64.45
2023-05-09T11:41:31.026Z,67.30
2023-05-09T11:44:37.336Z,74.03
2023-05-09T11:47:41.364Z,64.57
2023-05-09T11:50:48.607Z,56.40
2023-05-09T11:53:52.094Z,63.63
2023-05-09T11:56:55.184Z,61.97
2023-05-09T12:00:01.428Z,69.07
2023-05-09T12:03:08.673Z,64.15
2023-05-09T12:06:17.780Z,61.72
2023-05-09T12:09:22.078Z,52.00
2023-05-09T12:12:25.904Z,55.20
2023-05-09T12:15:29.933Z,54.78
2023-05-09T12:18:33.605Z,55.42
2023-05-09T12:21:41.243Z,53.95
2023-05-09T12:24:44.271Z,49.33
2023-05-09T12:27:47.331Z,47.92
2023-05-09T12:30:51.996Z,52.50
2023-05-09T12:33:55.784Z,57.88
2023-05-09T12:37:00.651Z,57.70
2023-05-09T12:40:06.002Z,60.95
2023-05-09T12:43:09.734Z,61.00
2023-05-09T12:46:13.908Z,67.88
2023-05-09T12:49:22.591Z,68.88
2023-05-09T12:52:27.143Z,90.85
2023-05-09T12:55:32.269Z,81.43
2023-05-09T12:58:36.473Z,77.60
2023-05-09T13:01:40.259Z,71.85
2023-05-09T13:04:44.517Z,60.85
2023-05-09T13:07:58.334Z,83.88
2023-05-09T13:11:14.867Z,71.65
2023-05-09T13:14:22.206Z,68.80
2023-05-09T13:17:26.098Z,63.63
2023-05-09T13:20:30.242Z,70.07
2023-05-09T13:23:33.893Z,67.88
2023-05-09T13:26:37.339Z,68.00
2023-05-09T13:29:43.658Z,71.57
2023-05-09T13:32:57.415Z,96.50
2023-05-09T13:36:02.288Z,87.63
2023-05-09T13:39:05.672Z,98.68
2023-05-09T13:42:09.970Z,102.00
2023-05-09T13:45:13.109Z,101.80
2023-05-09T13:48:16.738Z,91.68
2023-05-09T13:51:20.027Z,72.40
2023-05-09T13:54:25.879Z,75.40
2023-05-09T13:57:29.415Z,66.30
2023-05-09T14:00:33.861Z,68.93
2023-05-09T14:03:37.826Z,64.05
2023-05-09T14:06:48.206Z,67.85
2023-05-09T14:09:56.224Z,67.32
2023-05-09T14:13:05.078Z,60.90
2023-05-09T14:16:09.471Z,57.65
2023-05-09T14:19:15.726Z,55.75
2023-05-09T14:22:18.631Z,56.13
2023-05-09T14:25:23.552Z,53.92
2023-05-09T14:28:27.486Z,58.28
2023-05-09T14:31:30.943Z,63.80
2023-05-09T14:34:34.319Z,56.70
2023-05-09T14:37:37.995Z,56.35
2023-05-09T14:40:41.625Z,48.03
2023-05-09T14:43:44.870Z,55.65
2023-05-09T14:46:48.985Z,53.03
2023-05-09T14:49:53.172Z,48.13
2023-05-09T14:52:56.840Z,83.35
2023-05-09T14:56:00.146Z,67.93
2023-05-09T14:59:04.365Z,71.25
2023-05-09T15:02:07.776Z,66.53
2023-05-09T15:05:12.054Z,56.53
2023-05-09T15:08:15.376Z,67.10
2023-05-09T15:11:19.017Z,67.90
2023-05-09T15:14:22.552Z,63.85
2023-05-09T15:17:25.528Z,64.75
2023-05-09T15:20:29.350Z,61.65
2023-05-09T15:23:32.347Z,61.15
2023-05-09T15:26:36.567Z,55.58
2023-05-09T15:29:42.420Z,68.47
2023-05-09T15:32:45.504Z,60.83
2023-05-09T15:35:50.633Z,73.50
2023-05-09T15:38:53.749Z,61.03
2023-05-09T15:41:56.782Z,62.10
2023-05-09T15:45:00.384Z,63.00
2023-05-09T15:48:04.669Z,69.65
2023-05-09T15:51:07.785Z,59.75
2023-05-09T15:54:10.989Z,64.30
2023-05-09T15:57:15.142Z,68.82
2023-05-09T16:00:18.753Z,68.13
2023-05-09T16:03:23.961Z,64.05
2023-05-09T16:06:29.133Z,58.50
2023-05-09T16:09:33.891Z,60.00
2023-05-09T16:12:37.235Z,59.97
2023-05-09T16:15:41.658Z,86.40
2023-05-09T16:18:45.444Z,87.18
2023-05-09T16:21:49.400Z,84.40
2023-05-09T16:24:53.268Z,75.70
2023-05-09T16:27:57.200Z,76.18
2023-05-09T16:31:05.512Z,79.20
2023-05-09T16:34:09.411Z,77.05
2023-05-09T16:37:12.401Z,72.03
2023-05-09T16:40:16.478Z,69.45
2023-05-09T16:43:20.662Z,73.65
2023-05-09T16:46:24.823Z,63.90
2023-05-09T16:49:29.016Z,68.78
2023-05-09T16:52:32.708Z,68.20
2023-05-09T16:55:36.667Z,57.10
2023-05-09T16:58:40.350Z,61.55
2023-05-09T17:01:44.006Z,70.95
2023-05-09T17:04:48.041Z,58.58
2023-05-09T17:07:51.377Z,62.33
2023-05-09T17:10:55.476Z,58.33
2023-05-09T17:13:59.193Z,63.55
2023-05-09T17:17:03.318Z,61.90
2023-05-09T17:20:07.690Z,64.03
2023-05-09T17:23:11.655Z,60.33
2023-05-09T17:26:15.467Z,62.03
2023-05-09T17:29:19.421Z,66.82
2023-05-09T17:32:22.753Z,61.38
2023-05-09T17:35:26.829Z,64.53
2023-05-09T17:38:30.758Z,63.63
2023-05-09T17:41:34.861Z,72.55
2023-05-09T17:44:39.526Z,66.50
2023-05-09T17:47:43.109Z,69.45
2023-05-09T17:50:47.499Z,63.80
2023-05-09T17:53:53.596Z,58.05
2023-05-09T17:57:01.718Z,62.40
2023-05-09T18:00:08.824Z,65.10
2023-05-09T18:03:21.488Z,64.75
2023-05-09T18:06:24.642Z,73.40
2023-05-09T18:09:27.762Z,76.35
2023-05-09T18:12:31.982Z,88.07
2023-05-09T18:15:38.630Z,102.55
2023-05-09T18:18:42.835Z,93.15
2023-05-09T18:21:46.039Z,83.90
2023-05-09T18:24:50.296Z,70.35
2023-05-09T18:27:53.830Z,67.57
2023-05-09T18:31:01.757Z,63.60
2023-05-09T18:34:06.570Z,59.05
2023-05-09T18:37:11.220Z,101.47
2023-05-09T18:40:16.377Z,77.57
2023-05-09T18:43:22.399Z,96.97
2023-05-09T18:46:28.323Z,87.95
2023-05-09T18:49:32.443Z,96.70
2023-05-09T18:52:36.126Z,84.55
2023-05-09T18:55:39.806Z,92.72
2023-05-09T18:58:43.374Z,113.47
2023-05-09T19:01:47.623Z,95.75
2023-05-09T19:04:52.017Z,87.68
2023-05-09T19:07:56.125Z,77.03
2023-05-09T19:10:59.468Z,78.53
2023-05-09T19:14:03.459Z,68.13
2023-05-09T19:17:07.247Z,79.28
2023-05-09T19:20:11.507Z,65.43
2023-05-09T19:23:15.544Z,61.08
2023-05-09T19:26:20.037Z,62.00
2023-05-09T19:29:24.136Z,63.08
2023-05-09T19:32:27.874Z,61.25
2023-05-09T19:35:32.064Z,61.72
2023-05-09T19:38:35.881Z,65.05
2023-05-09T19:41:39.566Z,61.90
2023-05-09T19:44:43.348Z,58.33
2023-05-09T19:47:47.348Z,63.22
2023-05-09T19:50:56.302Z,59.60
2023-05-09T19:54:00.394Z,63.97
2023-05-09T19:57:06.778Z,63.22
2023-05-09T20:00:11.255Z,56.65
2023-05-09T20:03:15.802Z,60.90
2023-05-09T20:06:19.943Z,60.13
2023-05-09T20:09:23.417Z,62.92
2023-05-09T20:12:29.364Z,67.20
2023-05-09T20:15:34.049Z,69.22
2023-05-09T20:18:37.767Z,60.63
2023-05-09T20:21:40.727Z,67.95
2023-05-09T20:24:44.050Z,59.08
2023-05-09T20:27:47.781Z,68.43
2023-05-09T20:30:51.963Z,66.53
2023-05-09T20:33:56.153Z,69.65
2023-05-09T20:37:00.213Z,70.07
2023-05-09T20:40:07.040Z,67.30
2023-05-09T20:43:11.035Z,83.47
2023-05-09T20:46:14.743Z,60.75
2023-05-09T20:49:18.836Z,66.22
2023-05-09T20:52:22.585Z,60.03
2023-05-09T20:55:26.510Z,74.85
2023-05-09T20:58:34.126Z,66.22
2023-05-09T21:01:38.205Z,62.78
2023-05-09T21:04:42.004Z,68.05
2023-05-09T21:07:46.057Z,66.35
2023-05-09T21:10:53.070Z,61.45
2023-05-09T21:13:56.785Z,58.67
2023-05-09T21:17:00.635Z,61.55
2023-05-09T21:20:04.691Z,67.88
2023-05-09T21:23:09.405Z,56.25
2023-05-09T21:26:12.885Z,55.28
2023-05-09T21:29:16.916Z,68.65
2023-05-09T21:32:20.602Z,62.20
2023-05-09T21:35:24.168Z,64.05
2023-05-09T21:38:27.794Z,64.80
2023-05-09T21:41:31.822Z,73.20
2023-05-09T21:44:36.952Z,76.70
2023-05-09T21:47:41.523Z,70.00
2023-05-09T21:50:46.634Z,71.10
2023-05-09T21:53:50.782Z,67.28
2023-05-09T21:56:54.351Z,79.78
2023-05-09T22:00:02.059Z,68.93
2023-05-09T22:03:15.829Z,74.47
2023-05-09T22:06:19.965Z,70.88
2023-05-09T22:09:24.165Z,75.20
2023-05-09T22:12:28.191Z,65.07
2023-05-09T22:15:31.859Z,65.70
2023-05-09T22:18:36.079Z,89.43
2023-05-09T22:21:39.539Z,79.43
2023-05-09T22:24:43.382Z,77.38
2023-05-09T22:27:47.379Z,89.30
2023-05-09T22:30:51.347Z,80.13
2023-05-09T22:33:55.054Z,89.10
2023-05-09T22:36:58.417Z,75.95
2023-05-09T22:40:02.099Z,83.07
2023-05-09T22:43:05.954Z,92.78
2023-05-09T22:46:09.706Z,83.22
2023-05-09T22:49:13.918Z,92.53
2023-05-09T22:52:17.740Z,88.68
2023-05-09T22:55:21.936Z,86.55
2023-05-09T22:58:25.622Z,85.78
2023-05-09T23:01:29.806Z,85.45
2023-05-09T23:04:33.449Z,91.97
2023-05-09T23:07:37.829Z,95.63
2023-05-09T23:10:41.368Z,93.57
2023-05-09T23:13:44.968Z,92.75
2023-05-09T23:16:49.757Z,85.60
2023-05-09T23:19:53.423Z,91.03
2023-05-09T23:22:57.243Z,95.68
2023-05-09T23:26:01.023Z,97.75
2023-05-09T23:29:04.671Z,105.60
2023-05-09T23:32:08.733Z,103.20
2023-05-09T23:35:12.285Z,104.65
2023-05-09T23:38:16.237Z,107.35
2023-05-09T23:41:19.943Z,80.20
2023-05-09T23:44:23.802Z,76.53
2023-05-09T23:47:27.685Z,69.47
2023-05-09T23:50:31.673Z,69.43
2023-05-09T23:53:35.720Z,66.40
2023-05-09T23:56:39.829Z,70.78
2023-05-09T23:59:43.730Z,77.10
